Time;durP1;ratioP1;P1;durP2;ratioP2;P2;SDS_P1;SDS_P2;PMS_P1;PMS_P2;Temp;Humidity;BMP_temperature;BMP_pressure;BME280_temperature;BME280_humidity;BME280_pressure;Samples;Min_cycle;Max_cycle;Signal;HPM_P1;HPM_P2
2023/04/20 00:01:46;;;;;;;5.23;3.33;;;4.70;99.90;;;;;;6241243;22;20249;-87
2023/04/20 00:04:15;;;;;;;3.70;3.37;;;4.80;99.90;;;;;;6213713;23;20556;-87
2023/04/20 00:06:42;;;;;;;4.87;3.90;;;4.80;53.20;;;;;;6213568;23;20186;-87
2023/04/20 00:09:09;;;;;;;4.57;3.50;;;4.80;1.00;;;;;;6213027;23;20213;-87
2023/04/20 00:11:35;;;;;;;4.20;3.80;;;4.80;1.00;;;;;;6213748;23;20176;-88
2023/04/20 00:14:01;;;;;;;4.43;3.60;;;4.80;1.00;;;;;;6213265;23;20158;-88
2023/04/20 00:16:26;;;;;;;4.30;3.63;;;4.80;1.00;;;;;;6213337;23;20205;-88
2023/04/20 00:18:52;;;;;;;4.80;3.47;;;4.80;1.00;;;;;;6212225;23;20162;-87
2023/04/20 00:21:22;;;;;;;5.43;3.87;;;4.80;1.00;;;;;;6239200;22;20201;-88
2023/04/20 00:23:48;;;;;;;4.13;3.57;;;4.80;1.00;;;;;;6212124;23;20201;-86
2023/04/20 00:26:14;;;;;;;6.13;3.97;;;4.80;1.00;;;;;;6212276;23;20214;-86
2023/04/20 00:28:39;;;;;;;6.47;4.17;;;4.70;1.00;;;;;;6211307;23;20193;-87
2023/04/20 00:31:05;;;;;;;5.13;3.90;;;4.70;99.90;;;;;;6212724;23;20174;-88
2023/04/20 00:33:30;;;;;;;7.03;4.40;;;4.70;99.90;;;;;;6239455;23;20233;-88
2023/04/20 00:35:56;;;;;;;8.20;4.67;;;4.60;99.90;;;;;;6212704;23;20157;-88
2023/04/20 00:38:22;;;;;;;6.03;4.53;;;4.70;99.90;;;;;;6211515;23;20157;-88
2023/04/20 00:40:51;;;;;;;6.03;4.40;;;4.70;99.90;;;;;;6211683;23;20181;-88
2023/04/20 00:43:18;;;;;;;5.83;4.53;;;4.70;99.90;;;;;;6212156;23;20650;-87
2023/04/20 00:45:44;;;;;;;6.80;4.63;;;4.70;99.90;;;;;;6240165;23;20150;-87
2023/04/20 00:48:10;;;;;;;7.07;4.87;;;4.90;1.00;;;;;;6213180;23;20185;-87
2023/04/20 00:50:37;;;;;;;6.80;4.90;;;5.00;99.90;;;;;;6213482;23;20182;-87
2023/04/20 00:53:03;;;;;;;7.87;5.07;;;5.00;1.00;;;;;;6240356;23;20158;-87
2023/04/20 00:55:30;;;;;;;8.07;5.87;;;4.90;48.30;;;;;;6213917;23;20149;-87
2023/04/20 00:57:56;;;;;;;7.17;5.20;;;4.80;99.90;;;;;;6214311;23;20299;-86
2023/04/20 01:00:21;;;;;;;6.70;4.93;;;4.90;99.90;;;;;;6213910;22;20203;-87
2023/04/20 01:02:47;;;;;;;6.47;5.23;;;4.90;99.90;;;;;;6213202;23;20173;-88
2023/04/20 01:05:13;;;;;;;6.90;5.97;;;4.90;99.90;;;;;;6213170;23;20240;-88
2023/04/20 01:07:38;;;;;;;9.10;6.00;;;4.90;99.90;;;;;;6213260;23;20158;-88
2023/04/20 01:10:06;;;;;;;7.80;6.23;;;4.80;99.90;;;;;;6213386;23;20208;-87
2023/04/20 01:12:31;;;;;;;7.13;6.10;;;4.80;99.90;;;;;;6213652;23;20170;-87
2023/04/20 01:14:57;;;;;;;8.80;6.20;;;4.80;1.00;;;;;;6213552;23;20158;-88
2023/04/20 01:17:23;;;;;;;6.80;5.60;;;4.80;1.00;;;;;;6213337;23;20177;-88
2023/04/20 01:19:49;;;;;;;9.33;6.30;;;4.90;1.00;;;;;;6212984;23;20211;-88
2023/04/20 01:22:19;;;;;;;9.63;6.23;;;5.00;1.00;;;;;;6213178;23;20173;-88
2023/04/20 01:24:45;;;;;;;9.57;6.30;;;5.00;99.90;;;;;;6213580;23;20158;-87
2023/04/20 01:27:12;;;;;;;9.70;6.10;;;5.00;99.90;;;;;;6213437;23;20161;-88
2023/04/20 01:29:38;;;;;;;9.13;6.83;;;5.10;99.90;;;;;;6239833;23;20209;-87
2023/04/20 01:32:04;;;;;;;7.93;6.70;;;5.10;99.90;;;;;;6213487;23;20652;-87
2023/04/20 01:34:30;;;;;;;11.60;6.63;;;5.10;99.90;;;;;;6213137;23;20544;-89
2023/04/20 01:36:56;;;;;;;7.67;6.60;;;5.10;99.90;;;;;;6212898;23;20157;-88
2023/04/20 01:39:21;;;;;;;7.00;6.03;;;5.00;99.90;;;;;;6239061;23;20229;-88
2023/04/20 01:41:47;;;;;;;9.60;7.20;;;5.00;99.90;;;;;;6212456;23;20273;-86
2023/04/20 01:44:12;;;;;;;8.30;6.07;;;5.10;99.90;;;;;;6239808;23;20149;-88
2023/04/20 01:46:39;;;;;;;8.83;6.73;;;5.20;99.90;;;;;;6239327;23;20153;-87
2023/04/20 01:49:05;;;;;;;10.60;7.00;;;5.20;99.90;;;;;;6212689;23;20211;-87
2023/04/20 01:51:32;;;;;;;9.77;7.17;;;5.20;97.00;;;;;;6238968;22;20173;-87
2023/04/20 01:53:58;;;;;;;9.53;7.07;;;5.20;92.30;;;;;;6239013;23;20212;-87
2023/04/20 01:56:23;;;;;;;6.67;5.83;;;5.20;68.00;;;;;;6238679;23;20600;-88
2023/04/20 01:58:49;;;;;;;8.63;7.20;;;5.20;47.30;;;;;;6211748;23;20168;-88
2023/04/20 02:01:15;;;;;;;9.07;6.67;;;5.30;10.90;;;;;;6212084;23;20181;-88
2023/04/20 02:03:40;;;;;;;7.57;6.77;;;5.20;68.30;;;;;;6238601;23;20628;-88
2023/04/20 02:06:06;;;;;;;7.90;6.77;;;5.20;99.90;;;;;;6212239;23;20509;-86
2023/04/20 02:08:32;;;;;;;8.03;7.07;;;5.30;99.90;;;;;;6238274;23;20700;-88
2023/04/20 02:10:58;;;;;;;9.43;7.43;;;5.30;99.90;;;;;;6211775;23;20184;-87
2023/04/20 02:13:23;;;;;;;8.33;7.03;;;5.20;99.90;;;;;;6211709;23;20252;-88
2023/04/20 02:15:49;;;;;;;7.97;6.67;;;5.20;99.90;;;;;;6211749;23;20264;-88
2023/04/20 02:18:15;;;;;;;10.50;7.83;;;5.30;99.90;;;;;;6238028;23;20161;-87
2023/04/20 02:20:41;;;;;;;8.70;7.20;;;5.20;99.90;;;;;;6211458;23;20185;-87
2023/04/20 02:23:07;;;;;;;9.50;6.77;;;5.30;99.90;;;;;;6211813;23;20169;-88
2023/04/20 02:25:32;;;;;;;8.53;6.97;;;5.30;67.00;;;;;;6237639;23;20156;-87
2023/04/20 02:27:58;;;;;;;7.43;6.50;;;5.30;57.00;;;;;;6211481;23;20375;-88
2023/04/20 02:30:24;;;;;;;7.13;5.73;;;5.30;1.00;;;;;;6211319;22;20192;-87
2023/04/20 02:32:49;;;;;;;7.47;6.40;;;5.30;1.00;;;;;;6211635;23;20494;-88
2023/04/20 02:35:15;;;;;;;7.93;6.20;;;5.20;1.00;;;;;;6211289;23;20153;-87
2023/04/20 02:37:42;;;;;;;7.10;6.33;;;5.20;6.00;;;;;;6238286;23;20154;-88
2023/04/20 02:40:08;;;;;;;8.97;7.47;;;5.30;4.30;;;;;;6211074;23;20610;-87
2023/04/20 02:42:34;;;;;;;9.70;6.90;;;5.30;37.50;;;;;;6211256;23;20181;-85
2023/04/20 02:45:00;;;;;;;9.53;8.00;;;5.30;26.90;;;;;;6211607;23;20150;-88
2023/04/20 02:47:25;;;;;;;10.60;7.63;;;5.30;67.90;;;;;;6211356;23;20156;-88
2023/04/20 02:49:51;;;;;;;11.13;7.87;;;5.30;99.90;;;;;;6211522;23;20193;-88
2023/04/20 02:52:16;;;;;;;10.23;8.03;;;5.30;99.90;;;;;;6238229;22;20236;-87
2023/04/20 02:54:42;;;;;;;10.67;7.73;;;5.30;99.90;;;;;;6212056;23;20535;-88
2023/04/20 02:57:07;;;;;;;11.17;8.50;;;5.20;99.90;;;;;;6211985;23;20158;-88
2023/04/20 02:59:33;;;;;;;9.37;7.90;;;5.30;99.90;;;;;;6212607;23;20185;-88
2023/04/20 03:01:58;;;;;;;11.60;8.80;;;5.30;99.90;;;;;;6214780;23;20181;-88
2023/04/20 03:04:26;;;;;;;8.87;7.97;;;5.20;1.00;;;;;;6213907;23;20240;-86
2023/04/20 03:06:52;;;;;;;8.67;7.77;;;5.20;1.00;;;;;;6213255;23;20168;-87
2023/04/20 03:09:18;;;;;;;11.17;8.77;;;5.20;1.00;;;;;;6213539;23;20185;-88
2023/04/20 03:11:44;;;;;;;9.63;7.87;;;5.20;1.00;;;;;;6214205;23;20177;-88
2023/04/20 03:14:10;;;;;;;10.13;8.30;;;5.20;39.80;;;;;;6214063;23;20142;-88
2023/04/20 03:16:35;;;;;;;10.93;8.07;;;5.10;99.90;;;;;;6214366;23;20177;-87
2023/04/20 03:19:01;;;;;;;9.10;7.73;;;5.10;99.90;;;;;;6213926;23;20248;-89
2023/04/20 03:21:27;;;;;;;9.03;7.90;;;5.10;99.90;;;;;;6214064;23;20208;-88
2023/04/20 03:23:53;;;;;;;9.87;8.07;;;5.10;99.90;;;;;;6214963;23;20188;-86
2023/04/20 03:26:19;;;;;;;9.23;7.17;;;5.10;99.90;;;;;;6214130;23;20193;-88
2023/04/20 03:28:44;;;;;;;9.37;7.70;;;5.10;99.90;;;;;;6214122;23;20255;-88
2023/04/20 03:31:10;;;;;;;8.33;7.27;;;5.10;99.90;;;;;;6215091;23;20251;-88
2023/04/20 03:33:36;;;;;;;9.53;8.00;;;5.10;99.90;;;;;;6213269;23;20172;-88
2023/04/20 03:36:02;;;;;;;10.50;8.27;;;5.20;99.90;;;;;;6215195;23;20534;-87
2023/04/20 03:38:27;;;;;;;9.13;7.57;;;5.20;1.00;;;;;;6212032;23;20204;-87
2023/04/20 03:40:53;;;;;;;10.63;8.90;;;5.20;1.00;;;;;;6211981;23;20177;-89
2023/04/20 03:43:18;;;;;;;11.20;8.67;;;5.20;1.00;;;;;;6238986;23;20177;-87
2023/04/20 03:45:44;;;;;;;11.07;8.90;;;5.20;1.00;;;;;;6214157;23;20164;-89
2023/04/20 03:48:09;;;;;;;11.40;9.10;;;5.20;1.00;;;;;;6212800;23;20188;-88
2023/04/20 03:50:35;;;;;;;10.23;8.57;;;5.20;1.00;;;;;;6212328;22;20180;-88
2023/04/20 03:53:00;;;;;;;10.10;8.43;;;5.30;1.00;;;;;;6239597;23;20597;-90
2023/04/20 03:55:26;;;;;;;9.87;8.53;;;5.30;1.00;;;;;;6213018;23;20597;-89
2023/04/20 03:57:53;;;;;;;11.00;8.33;;;5.20;1.00;;;;;;6239236;23;20192;-88
2023/04/20 04:00:18;;;;;;;11.67;9.00;;;5.30;1.00;;;;;;6212460;22;20184;-88
2023/04/20 04:02:44;;;;;;;10.07;8.33;;;5.30;1.00;;;;;;6212578;23;20669;-89
2023/04/20 04:05:10;;;;;;;9.67;8.20;;;5.30;1.00;;;;;;6213016;23;20157;-89
2023/04/20 04:07:36;;;;;;;10.37;7.70;;;5.30;1.00;;;;;;6212402;23;20172;-89
2023/04/20 04:10:03;;;;;;;11.03;7.70;;;5.20;1.00;;;;;;6212849;23;20164;-89
2023/04/20 04:12:29;;;;;;;8.63;7.77;;;5.30;99.90;;;;;;6213796;23;20184;-88
2023/04/20 04:14:54;;;;;;;9.93;7.47;;;5.30;99.90;;;;;;6213137;23;20189;-89
2023/04/20 04:17:20;;;;;;;8.33;7.33;;;5.30;99.90;;;;;;6213518;23;20170;-88
2023/04/20 04:19:45;;;;;;;9.77;7.67;;;5.30;90.40;;;;;;6214288;23;20168;-88
2023/04/20 04:22:11;;;;;;;10.40;8.57;;;5.30;98.80;;;;;;6216000;23;20181;-88
2023/04/20 04:24:37;;;;;;;9.90;7.63;;;5.30;5.60;;;;;;6214748;23;20169;-89
2023/04/20 04:27:04;;;;;;;8.53;7.47;;;5.30;70.30;;;;;;6215569;23;20779;-88
2023/04/20 04:29:30;;;;;;;10.60;7.43;;;5.30;1.00;;;;;;6214014;23;20735;-88
2023/04/20 04:31:57;;;;;;;10.43;8.10;;;5.30;1.00;;;;;;6213916;23;20656;-88
2023/04/20 04:34:22;;;;;;;9.73;8.73;;;5.30;1.00;;;;;;6214814;23;20153;-88
2023/04/20 04:36:49;;;;;;;9.13;7.93;;;5.40;1.00;;;;;;6214603;23;20240;-89
2023/04/20 04:39:14;;;;;;;8.77;7.83;;;5.40;1.00;;;;;;6214358;23;20185;-88
2023/04/20 04:41:40;;;;;;;9.53;7.83;;;5.40;1.00;;;;;;6240548;22;20169;-89
2023/04/20 04:44:07;;;;;;;8.57;7.53;;;5.50;1.00;;;;;;6214177;23;20162;-88
2023/04/20 04:46:33;;;;;;;8.60;7.53;;;5.50;1.00;;;;;;6214174;23;20161;-88
2023/04/20 04:48:59;;;;;;;10.53;7.53;;;5.40;1.00;;;;;;6217154;23;20235;-87
2023/04/20 04:51:25;;;;;;;10.60;8.30;;;5.40;1.00;;;;;;6212967;23;20527;-88
2023/04/20 04:53:51;;;;;;;8.40;7.50;;;5.40;1.00;;;;;;6212286;23;20213;-88
2023/04/20 04:56:19;;;;;;;10.13;6.87;;;5.40;1.00;;;;;;6212923;23;20506;-88
2023/04/20 04:58:44;;;;;;;8.07;7.27;;;5.40;1.00;;;;;;6212599;23;20166;-86
2023/04/20 05:01:10;;;;;;;8.67;7.70;;;5.50;1.00;;;;;;6239251;22;20200;-88
2023/04/20 05:03:36;;;;;;;7.53;6.40;;;5.60;1.00;;;;;;6212803;23;20165;-88
2023/04/20 05:06:02;;;;;;;7.93;6.93;;;5.60;99.90;;;;;;6239396;23;20154;-86
2023/04/20 05:08:27;;;;;;;6.27;5.60;;;5.70;99.90;;;;;;6212313;23;20220;-88
2023/04/20 05:10:53;;;;;;;7.70;6.90;;;5.70;99.90;;;;;;6211944;23;20184;-87
2023/04/20 05:13:18;;;;;;;7.60;6.37;;;5.60;99.90;;;;;;6212376;23;20710;-89
2023/04/20 05:15:44;;;;;;;7.63;6.80;;;5.60;99.90;;;;;;6239083;23;20173;-87
2023/04/20 05:18:09;;;;;;;7.27;6.43;;;5.60;99.90;;;;;;6212439;23;20217;-86
2023/04/20 05:20:35;;;;;;;9.77;7.03;;;5.50;99.90;;;;;;6211855;22;20610;-88
2023/04/20 05:23:01;;;;;;;7.10;6.40;;;5.50;99.90;;;;;;6212497;23;20529;-88
2023/04/20 05:25:26;;;;;;;7.73;6.43;;;5.40;99.90;;;;;;6212493;23;20162;-89
2023/04/20 05:27:52;;;;;;;8.10;7.30;;;5.40;99.90;;;;;;6238811;23;20164;-88
2023/04/20 05:30:17;;;;;;;7.73;6.93;;;5.40;99.90;;;;;;6238717;22;20170;-88
2023/04/20 05:32:43;;;;;;;7.43;6.63;;;5.50;99.90;;;;;;6238868;23;20612;-87
2023/04/20 05:35:08;;;;;;;7.27;6.53;;;5.70;99.90;;;;;;6212468;23;20546;-88
2023/04/20 05:37:34;;;;;;;7.60;6.87;;;5.70;99.90;;;;;;6212862;23;20989;-87
2023/04/20 05:40:00;;;;;;;7.47;6.60;;;5.70;99.90;;;;;;6212500;23;20158;-88
2023/04/20 05:42:25;;;;;;;7.17;6.57;;;5.70;99.90;;;;;;6212278;23;20250;-88
2023/04/20 05:44:51;;;;;;;7.77;6.97;;;5.70;99.90;;;;;;6212443;23;20153;-88
2023/04/20 05:47:16;;;;;;;7.23;6.43;;;5.70;99.90;;;;;;6212287;23;20146;-88
2023/04/20 05:49:44;;;;;;;8.43;7.63;;;6.00;99.90;;;;;;6211821;23;20236;-88
2023/04/20 05:52:09;;;;;;;7.70;6.90;;;6.10;99.90;;;;;;6212168;23;20224;-87
2023/04/20 05:54:35;;;;;;;7.37;6.67;;;6.10;99.90;;;;;;6211722;23;20165;-88
2023/04/20 05:57:04;;;;;;;7.83;6.90;;;6.30;99.90;;;;;;6214811;23;20150;-88
2023/04/20 05:59:30;;;;;;;8.70;7.87;;;6.20;99.90;;;;;;6213088;23;20169;-89
2023/04/20 06:01:56;;;;;;;7.73;7.03;;;6.30;99.90;;;;;;6211903;23;20619;-87
2023/04/20 06:04:22;;;;;;;8.10;7.30;;;6.30;99.90;;;;;;6212047;23;20586;-88
2023/04/20 06:06:47;;;;;;;8.10;7.40;;;6.50;99.90;;;;;;6213387;23;20154;-88
2023/04/20 06:09:13;;;;;;;7.77;6.97;;;6.70;99.90;;;;;;6238703;23;20165;-88
2023/04/20 06:11:40;;;;;;;7.87;7.10;;;7.10;99.90;;;;;;6211533;23;20177;-88
2023/04/20 06:14:05;;;;;;;8.43;7.63;;;7.10;99.90;;;;;;6212805;23;20149;-88
2023/04/20 06:16:36;;;;;;;8.17;7.37;;;7.00;90.80;;;;;;6213401;23;20726;-88
2023/04/20 06:19:02;;;;;;;8.67;7.87;;;7.00;83.10;;;;;;6212610;23;20173;-88
2023/04/20 06:21:28;;;;;;;8.50;7.70;;;6.90;93.20;;;;;;6238656;22;20184;-86
2023/04/20 06:23:53;;;;;;;7.90;7.20;;;7.00;97.90;;;;;;6211901;23;20328;-88
2023/04/20 06:26:19;;;;;;;8.67;7.73;;;7.00;79.20;;;;;;6211802;23;20214;-88
2023/04/20 06:28:47;;;;;;;8.83;8.00;;;6.90;92.20;;;;;;6211677;23;20312;-87
2023/04/20 06:31:12;;;;;;;9.63;8.63;;;6.90;91.50;;;;;;6212844;23;20177;-87
2023/04/20 06:33:38;;;;;;;9.57;8.57;;;6.90;99.40;;;;;;6213453;23;20161;-87
2023/04/20 06:36:07;;;;;;;9.13;8.23;;;6.90;99.90;;;;;;6241449;23;20157;-89
2023/04/20 06:38:32;;;;;;;9.57;8.57;;;7.00;99.90;;;;;;6211569;23;20285;-89
2023/04/20 06:41:00;;;;;;;9.57;8.57;;;7.00;86.50;;;;;;6213897;23;20186;-88
2023/04/20 06:43:26;;;;;;;9.80;8.80;;;7.10;71.20;;;;;;6218012;23;20161;-88
2023/04/20 06:45:52;;;;;;;10.23;9.23;;;7.30;65.50;;;;;;6242051;23;20157;-87
2023/04/20 06:48:17;;;;;;;9.33;8.13;;;7.40;45.80;;;;;;6216019;23;20185;-89
2023/04/20 06:50:43;;;;;;;8.00;7.30;;;7.50;34.80;;;;;;6217618;23;20520;-89
2023/04/20 06:53:08;;;;;;;8.87;8.00;;;7.80;23.20;;;;;;6213439;23;20161;-88
2023/04/20 06:55:34;;;;;;;9.43;8.53;;;8.20;10.30;;;;;;6211654;23;20499;-87
2023/04/20 06:57:59;;;;;;;7.57;6.93;;;8.60;1.00;;;;;;6211396;23;20203;-88
2023/04/20 07:00:27;;;;;;;8.23;7.37;;;9.00;1.00;;;;;;6211694;22;20158;-88
2023/04/20 07:02:52;;;;;;;8.07;7.37;;;9.40;1.00;;;;;;6211983;23;20755;-87
2023/04/20 07:05:18;;;;;;;8.67;7.87;;;9.40;1.00;;;;;;6211429;23;20166;-88
2023/04/20 07:07:44;;;;;;;8.13;7.33;;;9.20;1.00;;;;;;6210754;23;20158;-85
2023/04/20 07:10:11;;;;;;;8.60;7.70;;;9.40;1.00;;;;;;6213022;23;20215;-86
2023/04/20 07:12:38;;;;;;;7.90;7.20;;;9.40;1.00;;;;;;6211383;23;20205;-86
2023/04/20 07:15:06;;;;;;;8.50;7.40;;;9.10;1.00;;;;;;6217431;23;20165;-86
2023/04/20 07:17:32;;;;;;;8.50;7.77;;;9.00;1.00;;;;;;6237768;23;21014;-87
2023/04/20 07:20:04;;;;;;;9.37;8.47;;;8.70;1.00;;;;;;6210177;23;20201;-87
2023/04/20 07:22:30;;;;;;;8.47;7.67;;;8.90;1.00;;;;;;6210318;23;20216;-86
2023/04/20 07:24:56;;;;;;;8.47;7.73;;;8.90;1.00;;;;;;6210149;23;20169;-87
2023/04/20 07:27:21;;;;;;;8.07;7.37;;;8.90;1.00;;;;;;6237250;23;20188;-88
2023/04/20 07:29:47;;;;;;;7.83;7.13;;;9.80;1.00;;;;;;6211259;23;20189;-88
2023/04/20 07:32:13;;;;;;;8.23;7.43;;;8.70;1.00;;;;;;6210742;23;20181;-87
2023/04/20 07:34:39;;;;;;;8.50;7.70;;;8.60;1.00;;;;;;6210579;23;20158;-88
2023/04/20 07:37:04;;;;;;;8.40;7.60;;;8.50;1.00;;;;;;6210465;23;20157;-89
2023/04/20 07:39:30;;;;;;;7.90;7.10;;;8.70;1.00;;;;;;6209772;23;20165;-88
2023/04/20 07:41:56;;;;;;;7.93;7.13;;;9.10;1.00;;;;;;6208749;23;20205;-88
2023/04/20 07:44:21;;;;;;;7.87;7.17;;;8.30;1.00;;;;;;6211633;23;20161;-88
2023/04/20 07:46:48;;;;;;;7.63;6.93;;;8.30;1.00;;;;;;6212160;23;20169;-88
2023/04/20 07:49:14;;;;;;;7.63;6.93;;;8.50;1.00;;;;;;6206738;23;20190;-88
2023/04/20 07:51:40;;;;;;;8.10;7.30;;;8.40;1.00;;;;;;6208352;23;20177;-89
2023/04/20 07:54:06;;;;;;;7.97;7.17;;;8.50;1.00;;;;;;6208799;23;20164;-89
2023/04/20 07:56:32;;;;;;;7.70;6.70;;;8.70;1.00;;;;;;6209607;23;20758;-88
2023/04/20 07:58:57;;;;;;;6.97;6.27;;;9.00;1.00;;;;;;6218402;23;20176;-88
2023/04/20 08:01:26;;;;;;;6.30;5.70;;;9.30;1.00;;;;;;6208030;23;20181;-89
2023/04/20 08:03:54;;;;;;;6.67;6.07;;;9.50;1.00;;;;;;6208675;23;20150;-88
2023/04/20 08:06:20;;;;;;;6.60;6.00;;;9.80;1.00;;;;;;6209307;23;20158;-88
2023/04/20 08:08:46;;;;;;;6.40;5.80;;;9.80;1.00;;;;;;6208422;23;20180;-89
2023/04/20 08:11:12;;;;;;;6.57;5.97;;;9.60;1.00;;;;;;6208804;23;20181;-89
2023/04/20 08:13:47;;;;;;;4.97;4.57;;;9.70;1.00;;;;;;6208859;23;20514;-89
2023/04/20 08:16:13;;;;;;;5.53;5.03;;;9.40;1.00;;;;;;6209609;23;20196;-89
2023/04/20 08:18:39;;;;;;;5.50;5.00;;;9.90;1.00;;;;;;6209591;23;20602;-89
2023/04/20 08:21:05;;;;;;;5.80;5.30;;;9.20;1.00;;;;;;6209508;23;20181;-89
2023/04/20 08:23:31;;;;;;;5.03;4.53;;;9.10;1.00;;;;;;6210024;23;20142;-88
2023/04/20 08:25:56;;;;;;;4.80;4.40;;;9.00;1.00;;;;;;6209661;23;20162;-89
2023/04/20 08:28:23;;;;;;;5.10;4.70;;;9.00;1.00;;;;;;6209652;23;20240;-89
2023/04/20 08:30:50;;;;;;;5.10;4.60;;;9.30;1.00;;;;;;6209721;23;20173;-88
2023/04/20 08:33:16;;;;;;;5.00;4.57;;;9.60;1.00;;;;;;6209834;23;20184;-88
2023/04/20 08:35:42;;;;;;;4.30;4.00;;;9.70;1.00;;;;;;6208972;23;20164;-89
2023/04/20 08:38:08;;;;;;;5.40;4.87;;;9.80;1.00;;;;;;6205043;23;20161;-90
2023/04/20 17:33:32;;;;;;;18.53;16.63;;;9.20;61.40;;;;;;6239913;22;20213;-88
2023/04/20 17:35:59;;;;;;;43.97;39.40;;;9.10;29.10;;;;;;6207256;23;20162;-88
2023/04/20 17:38:25;;;;;;;24.43;21.93;;;9.10;50.70;;;;;;6204594;23;20162;-88
2023/04/20 17:40:57;;;;;;;22.40;20.20;;;9.10;63.40;;;;;;6206722;23;20178;-88
2023/04/20 17:43:26;;;;;;;26.83;24.20;;;9.10;41.90;;;;;;6208313;23;20254;-88
2023/04/20 17:45:59;;;;;;;39.50;35.53;;;9.10;59.40;;;;;;6206722;23;20166;-88
2023/04/20 17:48:33;;;;;;;38.17;34.23;;;9.10;41.80;;;;;;6206344;23;20186;-88
2023/04/20 17:50:59;;;;;;;31.27;27.80;;;9.10;66.90;;;;;;6208443;23;20181;-88
2023/04/20 17:53:25;;;;;;;27.57;24.20;;;9.10;99.90;;;;;;6211462;23;20165;-88
2023/04/20 17:55:55;;;;;;;50.80;42.97;;;9.10;95.50;;;;;;6207803;23;20982;-88
2023/04/20 17:58:22;;;;;;;31.27;27.97;;;9.00;97.60;;;;;;6208237;23;20477;-88
2023/04/20 18:00:47;;;;;;;34.23;30.63;;;9.00;99.90;;;;;;6208409;23;20176;-89
2023/04/20 18:03:13;;;;;;;24.90;22.17;;;9.00;99.70;;;;;;6208049;23;20245;-88
2023/04/20 18:05:43;;;;;;;24.30;21.80;;;9.00;99.90;;;;;;6205447;23;20164;-88
2023/04/20 18:08:09;;;;;;;22.53;20.23;;;9.00;99.90;;;;;;6206514;23;20155;-88
2023/04/20 18:10:34;;;;;;;24.87;22.20;;;9.00;99.90;;;;;;6206516;23;20165;-88
2023/04/20 18:13:00;;;;;;;20.80;18.27;;;9.00;99.90;;;;;;6206686;23;20170;-88
2023/04/20 18:15:25;;;;;;;20.83;18.50;;;8.90;99.90;;;;;;6206945;23;20506;-89
2023/04/20 18:17:51;;;;;;;19.00;17.10;;;8.90;99.90;;;;;;6206702;23;20578;-88
2023/04/20 18:20:18;;;;;;;20.63;18.57;;;8.90;99.90;;;;;;6206236;23;20162;-88
2023/04/20 18:22:43;;;;;;;19.80;17.83;;;8.90;99.90;;;;;;6206852;23;20166;-89
2023/04/20 18:25:09;;;;;;;19.23;16.77;;;8.90;99.90;;;;;;6209046;23;20188;-85
2023/04/20 18:27:35;;;;;;;19.23;17.23;;;8.90;99.90;;;;;;6207213;23;20162;-88
2023/04/20 18:30:01;;;;;;;19.30;17.20;;;8.80;99.90;;;;;;6206448;23;20213;-89
2023/04/20 18:32:26;;;;;;;20.50;18.43;;;8.80;99.90;;;;;;6205477;23;21008;-88
2023/04/20 18:34:52;;;;;;;19.70;17.67;;;8.60;99.90;;;;;;6206154;23;20174;-87
2023/04/20 18:37:18;;;;;;;19.87;17.77;;;8.50;99.90;;;;;;6204583;23;20159;-87
2023/04/20 18:39:43;;;;;;;20.60;18.43;;;8.40;99.90;;;;;;6206015;23;20169;-87
2023/04/20 18:42:09;;;;;;;21.67;19.37;;;8.30;99.90;;;;;;6207361;23;20210;-88
2023/04/20 18:44:35;;;;;;;22.03;19.73;;;8.30;1.00;;;;;;6207956;23;20213;-88
2023/04/20 18:47:01;;;;;;;23.97;21.37;;;8.20;1.00;;;;;;6207412;23;20161;-88
2023/04/20 18:49:29;;;;;;;24.90;22.20;;;8.10;1.00;;;;;;6207102;23;20539;-88
2023/04/20 18:51:54;;;;;;;22.63;20.23;;;8.00;1.00;;;;;;6208444;23;20241;-88
2023/04/20 18:54:20;;;;;;;24.37;21.77;;;8.00;1.00;;;;;;6209051;23;20159;-86
2023/04/20 18:56:45;;;;;;;24.03;21.53;;;7.90;1.00;;;;;;6208217;23;20260;-88
2023/04/20 18:59:11;;;;;;;22.00;19.70;;;8.10;1.00;;;;;;6207554;23;20630;-88
2023/04/20 19:01:39;;;;;;;22.30;20.10;;;7.80;1.00;;;;;;6207840;23;20178;-87
2023/04/20 19:04:06;;;;;;;23.33;20.47;;;7.80;1.00;;;;;;6207623;23;20189;-87
2023/04/20 19:06:32;;;;;;;22.90;20.60;;;7.70;1.00;;;;;;6208820;23;20192;-88
2023/04/20 19:08:58;;;;;;;23.37;20.87;;;7.60;1.00;;;;;;6208614;23;20178;-88
2023/04/20 19:11:24;;;;;;;25.00;22.40;;;7.50;1.00;;;;;;6206742;23;20711;-87
2023/04/20 19:13:49;;;;;;;21.97;19.67;;;7.50;1.00;;;;;;6208013;23;20165;-87
2023/04/20 19:16:15;;;;;;;22.40;20.00;;;7.50;1.00;;;;;;6206155;23;20590;-88
2023/04/20 19:18:40;;;;;;;21.07;18.60;;;7.50;1.00;;;;;;6205879;23;20492;-88
2023/04/20 19:21:06;;;;;;;23.03;20.53;;;7.50;1.00;;;;;;6205895;23;20701;-88
2023/04/20 19:23:32;;;;;;;22.50;20.10;;;7.60;1.00;;;;;;6207481;23;20607;-88
2023/04/20 19:25:57;;;;;;;21.60;19.30;;;7.60;1.00;;;;;;6206145;23;20169;-88
2023/04/20 19:28:23;;;;;;;22.23;19.47;;;8.40;91.50;;;;;;6205828;23;20190;-86
2023/04/20 19:30:48;;;;;;;22.57;20.23;;;7.60;93.10;;;;;;6207587;23;20661;-88
2023/04/20 19:33:14;;;;;;;21.47;19.17;;;7.60;72.20;;;;;;6205604;23;20197;-87
2023/04/20 19:35:41;;;;;;;21.17;18.83;;;7.70;91.10;;;;;;6207783;23;20135;-88
2023/04/20 19:38:06;;;;;;;19.47;17.37;;;7.70;27.30;;;;;;6205699;23;20162;-87
2023/04/20 19:40:32;;;;;;;19.77;17.73;;;7.70;9.70;;;;;;6205901;23;20187;-85
2023/04/20 19:42:57;;;;;;;20.30;18.07;;;7.60;1.00;;;;;;6207419;23;20626;-88
2023/04/20 19:45:23;;;;;;;19.77;17.70;;;7.60;60.10;;;;;;6206218;23;20158;-87
2023/04/20 19:47:49;;;;;;;19.27;17.27;;;7.50;99.90;;;;;;6205933;23;20502;-87
2023/04/20 19:50:14;;;;;;;20.07;17.30;;;7.50;99.90;;;;;;6207218;23;20182;-85
2023/04/20 19:52:40;;;;;;;19.53;17.43;;;7.60;99.90;;;;;;6205769;23;20966;-86
2023/04/20 19:55:06;;;;;;;19.63;17.43;;;7.60;99.90;;;;;;6205960;23;20155;-87
2023/04/20 19:57:32;;;;;;;19.80;17.73;;;7.60;99.90;;;;;;6205563;23;20166;-89
2023/04/20 19:59:58;;;;;;;19.50;17.40;;;7.70;99.90;;;;;;6205370;23;20165;-88
2023/04/20 20:02:24;;;;;;;20.67;18.57;;;7.70;99.90;;;;;;6207567;23;20260;-88
2023/04/20 20:04:50;;;;;;;19.97;17.87;;;7.70;99.90;;;;;;6205547;23;20602;-88
2023/04/20 20:07:16;;;;;;;19.93;17.90;;;7.70;99.90;;;;;;6205749;23;20166;-85
2023/04/20 20:09:43;;;;;;;20.40;17.73;;;7.80;99.90;;;;;;6205609;23;20638;-88
2023/04/20 20:12:09;;;;;;;21.10;17.80;;;7.70;99.90;;;;;;6207480;23;20174;-86
2023/04/20 20:14:35;;;;;;;20.60;18.40;;;7.70;99.90;;;;;;6206250;23;20182;-87
2023/04/20 20:17:01;;;;;;;20.63;18.53;;;7.70;50.50;;;;;;6205597;23;20158;-85
2023/04/20 20:19:26;;;;;;;19.87;17.87;;;7.60;43.00;;;;;;6205497;23;20166;-87
2023/04/20 20:21:52;;;;;;;20.87;18.77;;;7.50;31.20;;;;;;6207232;23;20698;-87
2023/04/20 20:24:18;;;;;;;20.17;17.93;;;7.40;94.20;;;;;;6205769;23;20261;-87
2023/04/20 20:26:43;;;;;;;21.70;19.27;;;7.30;99.90;;;;;;6206144;23;20166;-87
2023/04/20 20:29:09;;;;;;;20.10;18.10;;;7.30;99.90;;;;;;6206658;23;20214;-86
2023/04/20 20:31:34;;;;;;;20.37;18.13;;;7.30;99.90;;;;;;6206048;23;20174;-88
2023/04/20 20:34:00;;;;;;;20.93;18.83;;;7.20;99.90;;;;;;6206206;23;20447;-89
2023/04/20 20:36:26;;;;;;;21.27;19.07;;;7.20;99.90;;;;;;6206997;23;20850;-88
2023/04/20 20:38:52;;;;;;;21.93;19.73;;;7.10;99.90;;;;;;6206630;23;20166;-90
2023/04/20 20:41:20;;;;;;;20.77;18.53;;;7.10;99.90;;;;;;6207192;23;20182;-90
2023/04/20 20:43:46;;;;;;;22.47;19.93;;;7.10;1.00;;;;;;6206803;23;20163;-90
2023/04/20 20:46:11;;;;;;;22.27;19.77;;;7.10;1.00;;;;;;6206816;23;20166;-91
2023/04/20 20:48:37;;;;;;;23.03;20.60;;;7.20;1.00;;;;;;6206461;23;20193;-90
2023/04/20 20:51:02;;;;;;;21.40;19.17;;;7.30;1.00;;;;;;6206621;23;20178;-87
2023/04/20 20:53:28;;;;;;;21.73;19.47;;;7.30;1.00;;;;;;6206899;23;20154;-91
2023/04/20 20:55:53;;;;;;;21.90;19.57;;;7.30;1.00;;;;;;6207007;23;20157;-90
2023/04/20 20:58:19;;;;;;;20.57;18.37;;;7.40;1.00;;;;;;6206644;23;20253;-89
2023/04/20 21:00:47;;;;;;;22.97;20.50;;;7.50;99.90;;;;;;6206871;23;20187;-89
2023/04/20 21:03:13;;;;;;;22.07;19.67;;;7.50;99.90;;;;;;6208274;23;20158;-89
2023/04/20 21:05:39;;;;;;;24.23;21.57;;;7.50;99.90;;;;;;6208686;23;20216;-91
2023/04/20 21:08:05;;;;;;;25.17;21.67;;;7.50;99.90;;;;;;6208050;23;20162;-90
2023/04/20 21:10:30;;;;;;;24.90;22.13;;;7.40;99.90;;;;;;6208389;23;20273;-92
2023/04/20 21:12:56;;;;;;;23.50;20.77;;;7.30;1.00;;;;;;6208176;23;20476;-89
2023/04/20 21:15:21;;;;;;;23.87;20.53;;;7.30;1.00;;;;;;6208409;23;20155;-88
2023/04/20 21:17:47;;;;;;;23.23;20.73;;;7.20;1.00;;;;;;6210696;23;20158;-91
2023/04/20 21:20:13;;;;;;;22.67;20.23;;;7.10;1.00;;;;;;6208799;23;20162;-88
2023/04/20 21:22:39;;;;;;;25.67;20.50;;;7.00;1.00;;;;;;6208543;23;20538;-90
2023/04/20 21:25:05;;;;;;;25.23;21.77;;;6.90;1.00;;;;;;6208374;23;20162;-89
2023/04/20 21:27:30;;;;;;;25.10;21.83;;;6.80;40.70;;;;;;6207918;23;20163;-89
2023/04/20 21:29:56;;;;;;;21.93;19.63;;;6.90;99.90;;;;;;6207393;23;20239;-88
2023/04/20 21:32:22;;;;;;;23.53;21.03;;;6.80;99.90;;;;;;6209451;23;20869;-89
2023/04/20 21:34:48;;;;;;;23.70;20.90;;;6.70;23.60;;;;;;6207473;23;20265;-88
2023/04/20 21:37:14;;;;;;;26.20;21.60;;;6.60;99.90;;;;;;6207893;23;20195;-89
2023/04/20 21:39:39;;;;;;;24.30;21.60;;;6.70;1.00;;;;;;6207227;23;20165;-88